sensor_id;sensor_type;location;lat;lon;timestamp;temperature;humidity
51613;DHT22;37694;51.748;14.326;2023-10-31T00:02:11;20.50;53.00
51613;DHT22;37694;51.748;14.326;2023-10-31T00:04:37;20.50;53.00
51613;DHT22;37694;51.748;14.326;2023-10-31T00:07:03;20.40;53.00
51613;DHT22;37694;51.748;14.326;2023-10-31T00:09:28;20.40;53.00
51613;DHT22;37694;51.748;14.326;2023-10-31T00:11:54;20.40;53.00
51613;DHT22;37694;51.748;14.326;2023-10-31T00:14:20;20.40;52.90
51613;DHT22;37694;51.748;14.326;2023-10-31T00:16:45;20.50;53.20
51613;DHT22;37694;51.748;14.326;2023-10-31T00:19:14;20.40;52.90
51613;DHT22;37694;51.748;14.326;2023-10-31T00:21:39;20.40;52.90
51613;DHT22;37694;51.748;14.326;2023-10-31T00:24:05;20.50;53.10
51613;DHT22;37694;51.748;14.326;2023-10-31T00:26:31;20.50;52.90
51613;DHT22;37694;51.748;14.326;2023-10-31T00:28:57;20.40;53.00
51613;DHT22;37694;51.748;14.326;2023-10-31T00:31:22;20.40;53.00
51613;DHT22;37694;51.748;14.326;2023-10-31T00:33:48;20.40;52.90
51613;DHT22;37694;51.748;14.326;2023-10-31T00:36:14;20.40;53.00
51613;DHT22;37694;51.748;14.326;2023-10-31T00:38:39;20.40;53.00
51613;DHT22;37694;51.748;14.326;2023-10-31T00:41:05;20.40;52.90
51613;DHT22;37694;51.748;14.326;2023-10-31T00:43:31;20.40;53.00
51613;DHT22;37694;51.748;14.326;2023-10-31T00:45:56;20.50;53.20
51613;DHT22;37694;51.748;14.326;2023-10-31T00:48:22;20.50;53.30
51613;DHT22;37694;51.748;14.326;2023-10-31T00:50:48;20.40;53.00
51613;DHT22;37694;51.748;14.326;2023-10-31T00:53:13;20.40;53.30
51613;DHT22;37694;51.748;14.326;2023-10-31T00:55:40;20.50;53.20
51613;DHT22;37694;51.748;14.326;2023-10-31T00:58:05;20.50;53.10
51613;DHT22;37694;51.748;14.326;2023-10-31T01:00:31;20.40;53.10
51613;DHT22;37694;51.748;14.326;2023-10-31T01:02:57;20.40;53.10
51613;DHT22;37694;51.748;14.326;2023-10-31T01:05:23;20.40;53.00
51613;DHT22;37694;51.748;14.326;2023-10-31T01:07:49;20.40;53.00
51613;DHT22;37694;51.748;14.326;2023-10-31T01:10:14;20.40;53.20
51613;DHT22;37694;51.748;14.326;2023-10-31T01:12:40;20.40;53.00
51613;DHT22;37694;51.748;14.326;2023-10-31T01:15:06;20.40;53.00
51613;DHT22;37694;51.748;14.326;2023-10-31T01:17:32;20.40;53.00
51613;DHT22;37694;51.748;14.326;2023-10-31T01:19:58;20.40;53.10
51613;DHT22;37694;51.748;14.326;2023-10-31T01:22:24;20.40;53.00
51613;DHT22;37694;51.748;14.326;2023-10-31T01:24:49;20.40;53.10
51613;DHT22;37694;51.748;14.326;2023-10-31T01:27:15;20.40;53.10
51613;DHT22;37694;51.748;14.326;2023-10-31T01:29:41;20.40;53.10
51613;DHT22;37694;51.748;14.326;2023-10-31T01:32:06;20.40;53.00
51613;DHT22;37694;51.748;14.326;2023-10-31T01:34:32;20.40;53.00
51613;DHT22;37694;51.748;14.326;2023-10-31T01:36:58;20.40;53.00
51613;DHT22;37694;51.748;14.326;2023-10-31T01:39:23;20.40;53.00
51613;DHT22;37694;51.748;14.326;2023-10-31T01:41:49;20.40;53.10
51613;DHT22;37694;51.748;14.326;2023-10-31T01:44:15;20.40;53.10
51613;DHT22;37694;51.748;14.326;2023-10-31T01:46:41;20.40;53.00
51613;DHT22;37694;51.748;14.326;2023-10-31T01:49:06;20.40;53.00
51613;DHT22;37694;51.748;14.326;2023-10-31T01:51:32;20.40;53.00
51613;DHT22;37694;51.748;14.326;2023-10-31T01:53:58;20.40;53.20
51613;DHT22;37694;51.748;14.326;2023-10-31T01:56:25;20.40;53.00
51613;DHT22;37694;51.748;14.326;2023-10-31T01:58:52;20.40;53.10
51613;DHT22;37694;51.748;14.326;2023-10-31T02:01:18;20.40;53.00
51613;DHT22;37694;51.748;14.326;2023-10-31T02:03:44;20.40;53.00
51613;DHT22;37694;51.748;14.326;2023-10-31T02:06:10;20.40;53.00
51613;DHT22;37694;51.748;14.326;2023-10-31T02:08:36;20.40;53.00
51613;DHT22;37694;51.748;14.326;2023-10-31T02:11:02;20.40;53.00
51613;DHT22;37694;51.748;14.326;2023-10-31T02:13:29;20.40;53.00
51613;DHT22;37694;51.748;14.326;2023-10-31T02:15:55;20.40;53.00
51613;DHT22;37694;51.748;14.326;2023-10-31T02:18:20;20.40;53.20
51613;DHT22;37694;51.748;14.326;2023-10-31T02:20:46;20.40;53.00
51613;DHT22;37694;51.748;14.326;2023-10-31T02:23:15;20.40;53.10
51613;DHT22;37694;51.748;14.326;2023-10-31T02:25:41;20.40;53.20
51613;DHT22;37694;51.748;14.326;2023-10-31T02:28:07;20.40;53.00
51613;DHT22;37694;51.748;14.326;2023-10-31T02:30:33;20.40;53.00
51613;DHT22;37694;51.748;14.326;2023-10-31T02:33:03;20.40;53.10
51613;DHT22;37694;51.748;14.326;2023-10-31T02:35:29;20.40;53.10
51613;DHT22;37694;51.748;14.326;2023-10-31T02:37:54;20.40;53.10
51613;DHT22;37694;51.748;14.326;2023-10-31T02:40:20;20.40;53.00
51613;DHT22;37694;51.748;14.326;2023-10-31T02:42:46;20.40;53.10
51613;DHT22;37694;51.748;14.326;2023-10-31T02:45:12;20.40;54.00
51613;DHT22;37694;51.748;14.326;2023-10-31T02:47:37;20.40;53.10
51613;DHT22;37694;51.748;14.326;2023-10-31T02:50:03;20.40;53.10
51613;DHT22;37694;51.748;14.326;2023-10-31T02:52:29;20.40;53.10
51613;DHT22;37694;51.748;14.326;2023-10-31T02:54:55;20.40;53.10
51613;DHT22;37694;51.748;14.326;2023-10-31T02:57:20;20.40;53.10
51613;DHT22;37694;51.748;14.326;2023-10-31T02:59:46;20.40;53.20
51613;DHT22;37694;51.748;14.326;2023-10-31T03:02:12;20.40;53.10
51613;DHT22;37694;51.748;14.326;2023-10-31T03:04:38;20.40;53.20
51613;DHT22;37694;51.748;14.326;2023-10-31T03:07:04;20.40;53.10
51613;DHT22;37694;51.748;14.326;2023-10-31T03:09:29;20.40;53.10
51613;DHT22;37694;51.748;14.326;2023-10-31T03:11:55;20.40;53.10
51613;DHT22;37694;51.748;14.326;2023-10-31T03:14:21;20.40;53.10
51613;DHT22;37694;51.748;14.326;2023-10-31T03:16:46;20.40;53.10
51613;DHT22;37694;51.748;14.326;2023-10-31T03:19:12;20.40;53.10
51613;DHT22;37694;51.748;14.326;2023-10-31T03:21:38;20.40;53.10
51613;DHT22;37694;51.748;14.326;2023-10-31T03:24:05;20.40;53.10
51613;DHT22;37694;51.748;14.326;2023-10-31T03:26:30;20.40;53.00
51613;DHT22;37694;51.748;14.326;2023-10-31T03:28:56;20.40;53.00
51613;DHT22;37694;51.748;14.326;2023-10-31T03:31:25;20.30;53.30
51613;DHT22;37694;51.748;14.326;2023-10-31T03:33:51;20.30;53.30
51613;DHT22;37694;51.748;14.326;2023-10-31T03:36:17;20.40;53.20
51613;DHT22;37694;51.748;14.326;2023-10-31T03:38:43;20.40;53.10
51613;DHT22;37694;51.748;14.326;2023-10-31T03:41:09;20.30;53.10
51613;DHT22;37694;51.748;14.326;2023-10-31T03:43:34;20.30;53.10
51613;DHT22;37694;51.748;14.326;2023-10-31T03:46:00;20.40;53.90
51613;DHT22;37694;51.748;14.326;2023-10-31T03:48:26;20.40;53.60
51613;DHT22;37694;51.748;14.326;2023-10-31T03:50:52;20.40;53.70
51613;DHT22;37694;51.748;14.326;2023-10-31T03:53:18;20.40;53.50
51613;DHT22;37694;51.748;14.326;2023-10-31T03:55:44;20.40;53.50
51613;DHT22;37694;51.748;14.326;2023-10-31T03:58:10;20.40;53.40
51613;DHT22;37694;51.748;14.326;2023-10-31T04:00:36;20.40;53.50
51613;DHT22;37694;51.748;14.326;2023-10-31T04:03:01;20.50;53.50
51613;DHT22;37694;51.748;14.326;2023-10-31T04:05:27;20.40;53.40
51613;DHT22;37694;51.748;14.326;2023-10-31T04:07:53;20.40;53.40
51613;DHT22;37694;51.748;14.326;2023-10-31T04:10:20;20.40;53.30
51613;DHT22;37694;51.748;14.326;2023-10-31T04:12:45;20.40;53.50
51613;DHT22;37694;51.748;14.326;2023-10-31T04:15:11;20.40;53.40
51613;DHT22;37694;51.748;14.326;2023-10-31T04:17:37;20.40;53.80
51613;DHT22;37694;51.748;14.326;2023-10-31T04:20:04;20.40;53.80
51613;DHT22;37694;51.748;14.326;2023-10-31T04:22:30;20.40;53.80
51613;DHT22;37694;51.748;14.326;2023-10-31T04:24:55;20.50;53.90
51613;DHT22;37694;51.748;14.326;2023-10-31T04:27:21;20.50;53.90
51613;DHT22;37694;51.748;14.326;2023-10-31T04:29:47;20.50;54.00
51613;DHT22;37694;51.748;14.326;2023-10-31T04:32:13;20.40;54.00
51613;DHT22;37694;51.748;14.326;2023-10-31T04:34:39;20.50;54.00
51613;DHT22;37694;51.748;14.326;2023-10-31T04:37:04;20.50;53.90
51613;DHT22;37694;51.748;14.326;2023-10-31T04:39:30;20.40;53.90
51613;DHT22;37694;51.748;14.326;2023-10-31T04:41:56;20.40;54.20
51613;DHT22;37694;51.748;14.326;2023-10-31T04:44:22;20.50;54.00
51613;DHT22;37694;51.748;14.326;2023-10-31T04:46:48;20.40;53.80
51613;DHT22;37694;51.748;14.326;2023-10-31T04:49:14;20.50;54.10
51613;DHT22;37694;51.748;14.326;2023-10-31T04:51:41;20.40;53.90
51613;DHT22;37694;51.748;14.326;2023-10-31T04:54:06;20.50;53.80
51613;DHT22;37694;51.748;14.326;2023-10-31T04:56:33;20.40;54.00
51613;DHT22;37694;51.748;14.326;2023-10-31T04:58:58;20.40;54.00
51613;DHT22;37694;51.748;14.326;2023-10-31T05:01:24;20.40;54.00
51613;DHT22;37694;51.748;14.326;2023-10-31T05:03:50;20.40;54.10
51613;DHT22;37694;51.748;14.326;2023-10-31T05:06:19;20.40;54.00
51613;DHT22;37694;51.748;14.326;2023-10-31T05:08:46;20.50;54.30
51613;DHT22;37694;51.748;14.326;2023-10-31T05:11:12;20.40;53.80
51613;DHT22;37694;51.748;14.326;2023-10-31T05:13:38;20.50;54.00
51613;DHT22;37694;51.748;14.326;2023-10-31T05:16:05;20.40;54.00
51613;DHT22;37694;51.748;14.326;2023-10-31T05:18:31;20.50;54.40
51613;DHT22;37694;51.748;14.326;2023-10-31T05:20:56;20.40;54.20
51613;DHT22;37694;51.748;14.326;2023-10-31T05:23:22;20.40;54.70
51613;DHT22;37694;51.748;14.326;2023-10-31T05:25:48;20.40;54.50
51613;DHT22;37694;51.748;14.326;2023-10-31T05:28:13;20.40;54.50
51613;DHT22;37694;51.748;14.326;2023-10-31T05:30:39;20.40;54.30
51613;DHT22;37694;51.748;14.326;2023-10-31T05:33:04;20.40;54.20
51613;DHT22;37694;51.748;14.326;2023-10-31T05:35:30;20.40;54.50
51613;DHT22;37694;51.748;14.326;2023-10-31T05:37:56;20.40;54.60
51613;DHT22;37694;51.748;14.326;2023-10-31T05:40:22;20.40;54.50
51613;DHT22;37694;51.748;14.326;2023-10-31T05:42:50;20.40;54.30
51613;DHT22;37694;51.748;14.326;2023-10-31T05:45:16;20.40;54.10
51613;DHT22;37694;51.748;14.326;2023-10-31T05:47:41;20.40;54.40
51613;DHT22;37694;51.748;14.326;2023-10-31T05:50:07;20.40;54.20
51613;DHT22;37694;51.748;14.326;2023-10-31T05:52:33;20.40;54.40
51613;DHT22;37694;51.748;14.326;2023-10-31T05:55:00;20.40;54.00
51613;DHT22;37694;51.748;14.326;2023-10-31T05:57:26;20.40;54.40
51613;DHT22;37694;51.748;14.326;2023-10-31T05:59:51;20.40;54.30
51613;DHT22;37694;51.748;14.326;2023-10-31T06:02:17;20.40;54.00
51613;DHT22;37694;51.748;14.326;2023-10-31T06:04:44;20.40;53.80
51613;DHT22;37694;51.748;14.326;2023-10-31T06:07:11;20.40;54.20
51613;DHT22;37694;51.748;14.326;2023-10-31T06:09:37;20.40;53.80
51613;DHT22;37694;51.748;14.326;2023-10-31T06:12:03;20.40;53.70
51613;DHT22;37694;51.748;14.326;2023-10-31T06:14:28;20.40;53.90
51613;DHT22;37694;51.748;14.326;2023-10-31T06:16:54;20.40;53.70
51613;DHT22;37694;51.748;14.326;2023-10-31T06:19:21;20.40;53.50
51613;DHT22;37694;51.748;14.326;2023-10-31T06:21:47;20.40;53.40
51613;DHT22;37694;51.748;14.326;2023-10-31T06:24:13;20.40;53.60
51613;DHT22;37694;51.748;14.326;2023-10-31T06:26:39;20.40;53.60
51613;DHT22;37694;51.748;14.326;2023-10-31T06:29:05;20.40;53.50
51613;DHT22;37694;51.748;14.326;2023-10-31T06:31:31;20.40;53.80
51613;DHT22;37694;51.748;14.326;2023-10-31T06:33:57;20.40;53.50
51613;DHT22;37694;51.748;14.326;2023-10-31T06:36:22;20.40;53.70
51613;DHT22;37694;51.748;14.326;2023-10-31T06:38:48;20.40;53.60
51613;DHT22;37694;51.748;14.326;2023-10-31T06:41:14;20.40;53.50
51613;DHT22;37694;51.748;14.326;2023-10-31T06:43:40;20.40;53.60
51613;DHT22;37694;51.748;14.326;2023-10-31T06:46:05;20.40;53.60
51613;DHT22;37694;51.748;14.326;2023-10-31T06:48:32;20.40;53.60
51613;DHT22;37694;51.748;14.326;2023-10-31T06:50:58;20.40;53.70
51613;DHT22;37694;51.748;14.326;2023-10-31T06:53:23;20.40;53.70
51613;DHT22;37694;51.748;14.326;2023-10-31T06:55:49;20.40;53.70
51613;DHT22;37694;51.748;14.326;2023-10-31T06:58:15;20.40;53.50
51613;DHT22;37694;51.748;14.326;2023-10-31T07:00:40;20.40;53.60
51613;DHT22;37694;51.748;14.326;2023-10-31T07:03:06;20.40;53.40
51613;DHT22;37694;51.748;14.326;2023-10-31T07:05:37;20.40;53.40
51613;DHT22;37694;51.748;14.326;2023-10-31T07:08:04;20.40;53.40
51613;DHT22;37694;51.748;14.326;2023-10-31T07:10:30;20.40;53.30
51613;DHT22;37694;51.748;14.326;2023-10-31T07:12:56;20.40;53.30
51613;DHT22;37694;51.748;14.326;2023-10-31T07:15:24;20.40;53.30
51613;DHT22;37694;51.748;14.326;2023-10-31T07:17:50;20.40;53.40
51613;DHT22;37694;51.748;14.326;2023-10-31T07:20:15;20.40;53.40
51613;DHT22;37694;51.748;14.326;2023-10-31T07:22:41;20.40;54.20
51613;DHT22;37694;51.748;14.326;2023-10-31T07:25:07;20.40;53.40
51613;DHT22;37694;51.748;14.326;2023-10-31T07:27:33;20.40;53.30
51613;DHT22;37694;51.748;14.326;2023-10-31T07:29:59;20.40;53.40
51613;DHT22;37694;51.748;14.326;2023-10-31T07:32:25;20.40;53.40
51613;DHT22;37694;51.748;14.326;2023-10-31T07:34:51;20.40;53.40
51613;DHT22;37694;51.748;14.326;2023-10-31T07:37:17;20.40;53.60
51613;DHT22;37694;51.748;14.326;2023-10-31T07:39:43;20.40;55.00
51613;DHT22;37694;51.748;14.326;2023-10-31T07:42:08;20.40;53.90
51613;DHT22;37694;51.748;14.326;2023-10-31T07:44:34;20.40;53.70
51613;DHT22;37694;51.748;14.326;2023-10-31T07:47:00;20.40;53.60
51613;DHT22;37694;51.748;14.326;2023-10-31T07:49:26;20.40;53.50
51613;DHT22;37694;51.748;14.326;2023-10-31T07:51:51;20.40;53.40
51613;DHT22;37694;51.748;14.326;2023-10-31T07:54:17;20.40;53.40
51613;DHT22;37694;51.748;14.326;2023-10-31T07:56:43;20.40;53.40
51613;DHT22;37694;51.748;14.326;2023-10-31T07:59:09;20.40;53.40
51613;DHT22;37694;51.748;14.326;2023-10-31T08:01:35;20.40;53.60
51613;DHT22;37694;51.748;14.326;2023-10-31T08:04:01;20.40;53.50
51613;DHT22;37694;51.748;14.326;2023-10-31T08:06:27;20.40;53.50
51613;DHT22;37694;51.748;14.326;2023-10-31T08:08:53;20.40;53.50
51613;DHT22;37694;51.748;14.326;2023-10-31T08:11:18;20.40;53.40
51613;DHT22;37694;51.748;14.326;2023-10-31T08:13:44;20.40;53.50
51613;DHT22;37694;51.748;14.326;2023-10-31T08:16:10;20.40;53.50
51613;DHT22;37694;51.748;14.326;2023-10-31T08:18:36;20.40;53.50
51613;DHT22;37694;51.748;14.326;2023-10-31T08:21:02;20.40;53.40
51613;DHT22;37694;51.748;14.326;2023-10-31T08:23:28;20.40;53.40
51613;DHT22;37694;51.748;14.326;2023-10-31T08:25:54;20.40;53.40
51613;DHT22;37694;51.748;14.326;2023-10-31T08:28:20;20.50;53.50
51613;DHT22;37694;51.748;14.326;2023-10-31T08:30:46;20.40;53.40
51613;DHT22;37694;51.748;14.326;2023-10-31T08:33:12;20.40;53.40
51613;DHT22;37694;51.748;14.326;2023-10-31T08:35:38;20.40;53.40
51613;DHT22;37694;51.748;14.326;2023-10-31T08:38:04;20.40;53.30
51613;DHT22;37694;51.748;14.326;2023-10-31T08:40:29;20.40;54.30
51613;DHT22;37694;51.748;14.326;2023-10-31T08:42:55;20.40;53.40
51613;DHT22;37694;51.748;14.326;2023-10-31T08:45:21;20.40;53.40
51613;DHT22;37694;51.748;14.326;2023-10-31T08:47:47;20.40;53.30
51613;DHT22;37694;51.748;14.326;2023-10-31T08:50:13;20.40;53.40
51613;DHT22;37694;51.748;14.326;2023-10-31T08:52:39;20.40;53.50
51613;DHT22;37694;51.748;14.326;2023-10-31T08:55:05;20.40;53.40
51613;DHT22;37694;51.748;14.326;2023-10-31T08:57:31;20.40;53.40
51613;DHT22;37694;51.748;14.326;2023-10-31T08:59:59;20.40;53.50
51613;DHT22;37694;51.748;14.326;2023-10-31T09:02:25;20.40;53.60
51613;DHT22;37694;51.748;14.326;2023-10-31T09:04:50;20.40;53.40
51613;DHT22;37694;51.748;14.326;2023-10-31T09:07:16;20.40;53.40
51613;DHT22;37694;51.748;14.326;2023-10-31T09:09:42;20.40;53.40
51613;DHT22;37694;51.748;14.326;2023-10-31T09:12:08;20.40;54.20
51613;DHT22;37694;51.748;14.326;2023-10-31T09:14:34;20.40;53.30
51613;DHT22;37694;51.748;14.326;2023-10-31T09:17:01;20.50;54.20
51613;DHT22;37694;51.748;14.326;2023-10-31T09:19:27;20.40;53.10
51613;DHT22;37694;51.748;14.326;2023-10-31T09:21:52;20.40;53.10
51613;DHT22;37694;51.748;14.326;2023-10-31T09:24:18;20.40;53.10
51613;DHT22;37694;51.748;14.326;2023-10-31T09:26:44;20.50;53.30
51613;DHT22;37694;51.748;14.326;2023-10-31T09:29:13;20.50;53.20
51613;DHT22;37694;51.748;14.326;2023-10-31T09:31:38;20.50;53.50
51613;DHT22;37694;51.748;14.326;2023-10-31T09:34:04;20.50;53.40
51613;DHT22;37694;51.748;14.326;2023-10-31T09:36:33;20.50;53.30
51613;DHT22;37694;51.748;14.326;2023-10-31T09:39:02;20.50;53.20
51613;DHT22;37694;51.748;14.326;2023-10-31T09:41:28;20.50;53.30
51613;DHT22;37694;51.748;14.326;2023-10-31T09:43:54;20.50;53.40
51613;DHT22;37694;51.748;14.326;2023-10-31T09:46:21;20.50;53.20
51613;DHT22;37694;51.748;14.326;2023-10-31T09:48:48;20.50;53.10
51613;DHT22;37694;51.748;14.326;2023-10-31T09:51:14;20.50;53.10
51613;DHT22;37694;51.748;14.326;2023-10-31T09:53:42;20.50;53.00
51613;DHT22;37694;51.748;14.326;2023-10-31T09:56:10;20.50;53.00
51613;DHT22;37694;51.748;14.326;2023-10-31T09:58:36;20.50;53.00
51613;DHT22;37694;51.748;14.326;2023-10-31T10:01:02;20.50;53.10
51613;DHT22;37694;51.748;14.326;2023-10-31T10:03:29;20.50;53.10
51613;DHT22;37694;51.748;14.326;2023-10-31T10:05:55;20.50;53.10
51613;DHT22;37694;51.748;14.326;2023-10-31T10:08:21;20.50;53.30
51613;DHT22;37694;51.748;14.326;2023-10-31T10:10:48;20.50;53.20
51613;DHT22;37694;51.748;14.326;2023-10-31T10:13:17;20.60;53.10
51613;DHT22;37694;51.748;14.326;2023-10-31T10:15:47;20.60;53.30
51613;DHT22;37694;51.748;14.326;2023-10-31T10:18:34;20.60;53.30
51613;DHT22;37694;51.748;14.326;2023-10-31T10:21:02;20.60;53.00
51613;DHT22;37694;51.748;14.326;2023-10-31T10:23:28;20.60;53.20
51613;DHT22;37694;51.748;14.326;2023-10-31T10:25:56;20.60;53.10
51613;DHT22;37694;51.748;14.326;2023-10-31T10:28:22;20.70;53.00
51613;DHT22;37694;51.748;14.326;2023-10-31T10:30:50;20.70;52.90
51613;DHT22;37694;51.748;14.326;2023-10-31T10:33:16;20.70;52.90
51613;DHT22;37694;51.748;14.326;2023-10-31T10:35:43;20.70;52.90
51613;DHT22;37694;51.748;14.326;2023-10-31T10:38:16;20.70;52.80
51613;DHT22;37694;51.748;14.326;2023-10-31T10:40:44;20.80;52.80
51613;DHT22;37694;51.748;14.326;2023-10-31T10:43:30;20.80;52.80
51613;DHT22;37694;51.748;14.326;2023-10-31T10:45:58;20.80;53.60
51613;DHT22;37694;51.748;14.326;2023-10-31T10:48:26;20.80;52.80
51613;DHT22;37694;51.748;14.326;2023-10-31T10:51:24;20.80;52.70
51613;DHT22;37694;51.748;14.326;2023-10-31T10:54:01;20.80;52.80
51613;DHT22;37694;51.748;14.326;2023-10-31T10:56:34;20.80;52.70
51613;DHT22;37694;51.748;14.326;2023-10-31T10:59:28;20.80;52.70
51613;DHT22;37694;51.748;14.326;2023-10-31T11:01:49;20.90;52.70
51613;DHT22;37694;51.748;14.326;2023-10-31T11:04:16;20.90;52.70
51613;DHT22;37694;51.748;14.326;2023-10-31T11:06:42;20.90;52.50
51613;DHT22;37694;51.748;14.326;2023-10-31T11:09:09;21.00;52.50
51613;DHT22;37694;51.748;14.326;2023-10-31T11:11:39;21.00;52.50
51613;DHT22;37694;51.748;14.326;2023-10-31T11:14:06;21.00;52.40
51613;DHT22;37694;51.748;14.326;2023-10-31T11:16:43;21.00;52.30
51613;DHT22;37694;51.748;14.326;2023-10-31T11:19:10;21.00;52.10
51613;DHT22;37694;51.748;14.326;2023-10-31T11:21:36;21.10;52.30
51613;DHT22;37694;51.748;14.326;2023-10-31T11:24:02;21.10;52.20
51613;DHT22;37694;51.748;14.326;2023-10-31T11:26:31;21.10;52.10
51613;DHT22;37694;51.748;14.326;2023-10-31T11:29:07;21.10;52.00
51613;DHT22;37694;51.748;14.326;2023-10-31T11:31:34;21.10;52.00
51613;DHT22;37694;51.748;14.326;2023-10-31T11:34:02;21.10;52.00
51613;DHT22;37694;51.748;14.326;2023-10-31T11:36:31;21.20;51.90
51613;DHT22;37694;51.748;14.326;2023-10-31T11:39:18;21.20;51.90
51613;DHT22;37694;51.748;14.326;2023-10-31T11:41:49;21.20;51.80
51613;DHT22;37694;51.748;14.326;2023-10-31T11:44:16;21.20;52.00
51613;DHT22;37694;51.748;14.326;2023-10-31T11:46:42;21.20;52.00
51613;DHT22;37694;51.748;14.326;2023-10-31T11:49:08;21.20;52.10
51613;DHT22;37694;51.748;14.326;2023-10-31T11:51:33;21.20;52.20
51613;DHT22;37694;51.748;14.326;2023-10-31T11:54:02;21.20;52.20
51613;DHT22;37694;51.748;14.326;2023-10-31T11:56:28;21.10;52.20
51613;DHT22;37694;51.748;14.326;2023-10-31T11:59:04;21.20;52.30
51613;DHT22;37694;51.748;14.326;2023-10-31T12:01:30;21.10;52.10
51613;DHT22;37694;51.748;14.326;2023-10-31T12:03:56;21.10;52.10
51613;DHT22;37694;51.748;14.326;2023-10-31T12:06:21;21.10;52.10
51613;DHT22;37694;51.748;14.326;2023-10-31T12:08:48;21.10;52.20
51613;DHT22;37694;51.748;14.326;2023-10-31T12:11:16;21.10;52.10
51613;DHT22;37694;51.748;14.326;2023-10-31T12:13:59;21.10;52.00
51613;DHT22;37694;51.748;14.326;2023-10-31T12:16:30;21.10;52.10
51613;DHT22;37694;51.748;14.326;2023-10-31T12:19:04;21.10;52.10
51613;DHT22;37694;51.748;14.326;2023-10-31T12:21:44;21.10;52.10
51613;DHT22;37694;51.748;14.326;2023-10-31T12:24:14;21.10;52.10
51613;DHT22;37694;51.748;14.326;2023-10-31T12:26:40;21.10;52.20
51613;DHT22;37694;51.748;14.326;2023-10-31T12:29:17;21.10;52.20
51613;DHT22;37694;51.748;14.326;2023-10-31T12:31:48;21.10;52.20
51613;DHT22;37694;51.748;14.326;2023-10-31T12:34:15;21.10;52.20
51613;DHT22;37694;51.748;14.326;2023-10-31T12:36:41;21.10;52.40
51613;DHT22;37694;51.748;14.326;2023-10-31T12:39:09;21.10;52.30
51613;DHT22;37694;51.748;14.326;2023-10-31T12:41:36;21.10;52.30
51613;DHT22;37694;51.748;14.326;2023-10-31T12:44:02;21.10;52.20
51613;DHT22;37694;51.748;14.326;2023-10-31T12:46:31;21.10;52.30
51613;DHT22;37694;51.748;14.326;2023-10-31T12:48:59;21.10;52.40
51613;DHT22;37694;51.748;14.326;2023-10-31T12:51:25;21.10;52.40
51613;DHT22;37694;51.748;14.326;2023-10-31T12:53:52;21.10;52.40
51613;DHT22;37694;51.748;14.326;2023-10-31T12:56:37;21.10;52.40
51613;DHT22;37694;51.748;14.326;2023-10-31T12:59:05;21.10;52.50
51613;DHT22;37694;51.748;14.326;2023-10-31T13:01:34;21.00;52.50
51613;DHT22;37694;51.748;14.326;2023-10-31T13:04:01;21.00;53.20
51613;DHT22;37694;51.748;14.326;2023-10-31T13:06:27;21.00;52.20
51613;DHT22;37694;51.748;14.326;2023-10-31T13:08:55;21.00;52.30
51613;DHT22;37694;51.748;14.326;2023-10-31T13:11:22;21.00;52.30
51613;DHT22;37694;51.748;14.326;2023-10-31T13:13:52;21.00;52.30
51613;DHT22;37694;51.748;14.326;2023-10-31T13:16:18;21.00;52.20
51613;DHT22;37694;51.748;14.326;2023-10-31T13:18:44;21.00;52.40
51613;DHT22;37694;51.748;14.326;2023-10-31T13:21:10;21.00;52.30
51613;DHT22;37694;51.748;14.326;2023-10-31T13:23:36;21.00;52.30
51613;DHT22;37694;51.748;14.326;2023-10-31T13:26:04;21.00;52.30
51613;DHT22;37694;51.748;14.326;2023-10-31T13:28:29;21.00;52.30
51613;DHT22;37694;51.748;14.326;2023-10-31T13:30:57;21.00;52.30
51613;DHT22;37694;51.748;14.326;2023-10-31T13:33:23;21.00;52.50
51613;DHT22;37694;51.748;14.326;2023-10-31T13:35:49;21.00;52.40
51613;DHT22;37694;51.748;14.326;2023-10-31T13:38:14;21.00;52.10
51613;DHT22;37694;51.748;14.326;2023-10-31T13:40:40;21.00;52.20
51613;DHT22;37694;51.748;14.326;2023-10-31T13:43:06;21.00;52.20
51613;DHT22;37694;51.748;14.326;2023-10-31T13:45:33;21.00;52.30
51613;DHT22;37694;51.748;14.326;2023-10-31T13:47:59;21.00;52.10
51613;DHT22;37694;51.748;14.326;2023-10-31T13:50:25;21.00;52.10
51613;DHT22;37694;51.748;14.326;2023-10-31T13:52:50;21.00;52.20
51613;DHT22;37694;51.748;14.326;2023-10-31T13:55:18;20.90;52.10
51613;DHT22;37694;51.748;14.326;2023-10-31T13:57:44;20.90;52.00
51613;DHT22;37694;51.748;14.326;2023-10-31T14:00:10;20.90;52.10
51613;DHT22;37694;51.748;14.326;2023-10-31T14:02:36;20.90;52.10
51613;DHT22;37694;51.748;14.326;2023-10-31T14:05:02;20.90;51.90
51613;DHT22;37694;51.748;14.326;2023-10-31T14:07:29;20.90;51.90
51613;DHT22;37694;51.748;14.326;2023-10-31T14:09:55;20.90;51.90
51613;DHT22;37694;51.748;14.326;2023-10-31T14:12:22;20.90;51.80
51613;DHT22;37694;51.748;14.326;2023-10-31T14:14:48;20.90;51.90
51613;DHT22;37694;51.748;14.326;2023-10-31T14:17:15;20.90;51.80
51613;DHT22;37694;51.748;14.326;2023-10-31T14:19:42;20.90;51.80
51613;DHT22;37694;51.748;14.326;2023-10-31T14:22:08;20.90;51.80
51613;DHT22;37694;51.748;14.326;2023-10-31T14:24:35;20.90;51.90
51613;DHT22;37694;51.748;14.326;2023-10-31T14:27:01;20.90;51.90
51613;DHT22;37694;51.748;14.326;2023-10-31T14:29:27;20.90;51.70
51613;DHT22;37694;51.748;14.326;2023-10-31T14:31:52;20.90;51.80
51613;DHT22;37694;51.748;14.326;2023-10-31T14:34:20;20.90;51.80
51613;DHT22;37694;51.748;14.326;2023-10-31T14:36:46;20.90;51.70
51613;DHT22;37694;51.748;14.326;2023-10-31T14:39:12;20.90;51.70
51613;DHT22;37694;51.748;14.326;2023-10-31T14:41:38;20.90;51.60
51613;DHT22;37694;51.748;14.326;2023-10-31T14:44:04;20.90;51.80
51613;DHT22;37694;51.748;14.326;2023-10-31T14:46:30;20.80;51.70
51613;DHT22;37694;51.748;14.326;2023-10-31T14:48:58;20.80;51.70
51613;DHT22;37694;51.748;14.326;2023-10-31T14:51:23;20.80;51.60
51613;DHT22;37694;51.748;14.326;2023-10-31T14:53:49;20.80;51.70
51613;DHT22;37694;51.748;14.326;2023-10-31T14:56:16;20.80;51.80
51613;DHT22;37694;51.748;14.326;2023-10-31T14:58:42;20.80;51.80
51613;DHT22;37694;51.748;14.326;2023-10-31T15:01:08;20.80;51.80
51613;DHT22;37694;51.748;14.326;2023-10-31T15:03:34;20.80;51.80
51613;DHT22;37694;51.748;14.326;2023-10-31T15:05:59;20.80;51.80
51613;DHT22;37694;51.748;14.326;2023-10-31T15:08:25;20.80;51.90
51613;DHT22;37694;51.748;14.326;2023-10-31T15:10:52;20.80;51.80
51613;DHT22;37694;51.748;14.326;2023-10-31T15:13:18;20.80;51.80